Time;durP1;ratioP1;P1;durP2;ratioP2;P2;SDS_P1;SDS_P2;PMS_P1;PMS_P2;Temp;Humidity;BMP_temperature;BMP_pressure;BME280_temperature;BME280_humidity;BME280_pressure;Samples;Min_cycle;Max_cycle;Signal;HPM_P1;HPM_P2
2023/09/01 00:01:28;;;;;;;11.80;9.50;;;;;;;27.28;52.62;99774.80;108135;1255;73091;-67
2023/09/01 00:04:16;;;;;;;14.80;10.10;;;;;;;27.24;52.49;99775.29;108050;1260;69809;-66
2023/09/01 00:06:43;;;;;;;14.20;9.20;;;;;;;26.85;53.26;99782.88;108012;1253;72874;-66
2023/09/01 00:09:11;;;;;;;13.20;9.90;;;;;;;26.90;53.22;99791.81;108022;1254;63726;-66
2023/09/01 00:11:38;;;;;;;12.60;9.30;;;;;;;27.01;53.05;99796.59;108048;1254;60366;-68
2023/09/01 00:14:05;;;;;;;11.20;9.40;;;;;;;27.08;52.96;99796.04;108014;1254;73375;-67
2023/09/01 00:16:33;;;;;;;11.10;9.30;;;;;;;27.31;52.48;99797.37;108040;1257;69938;-67
2023/09/01 00:19:02;;;;;;;13.50;9.50;;;;;;;27.14;52.74;99795.70;108052;1256;71437;-67
2023/09/01 00:21:30;;;;;;;12.30;9.60;;;;;;;27.25;52.53;99800.63;108049;1260;60429;-68
2023/09/01 00:23:57;;;;;;;10.90;9.40;;;;;;;27.15;52.74;99803.90;108060;1258;60069;-68
2023/09/01 00:26:25;;;;;;;12.80;9.40;;;;;;;27.49;51.99;99806.40;108132;1254;71757;-67
2023/09/01 00:28:53;;;;;;;13.70;10.20;;;;;;;27.36;52.08;99807.59;107983;1259;71119;-67
2023/09/01 00:31:20;;;;;;;13.70;9.00;;;;;;;27.43;52.11;99807.37;107939;1255;72654;-67
2023/09/01 00:33:48;;;;;;;12.80;10.00;;;;;;;27.44;51.87;99812.95;108024;1257;61643;-67
2023/09/01 00:36:15;;;;;;;14.80;10.50;;;;;;;27.48;51.92;99817.08;108148;1253;59479;-68
2023/09/01 00:38:43;;;;;;;12.00;9.70;;;;;;;27.37;52.01;99819.23;108036;1254;72959;-67
2023/09/01 00:41:11;;;;;;;16.40;10.20;;;;;;;27.46;51.77;99817.88;108103;1253;68810;-66
2023/09/01 00:43:38;;;;;;;15.00;10.20;;;;;;;27.19;52.36;99815.86;108047;1254;71925;-67
2023/09/01 00:46:05;;;;;;;14.40;10.20;;;;;;;27.13;52.61;99809.81;108118;1254;61860;-66
2023/09/01 00:48:33;;;;;;;12.50;10.10;;;;;;;27.07;52.53;99809.95;108145;1253;59989;-65
2023/09/01 00:51:00;;;;;;;13.80;10.00;;;;;;;27.08;52.60;99810.56;108065;1254;73244;-67
2023/09/01 00:53:28;;;;;;;11.70;10.10;;;;;;;27.15;52.42;99810.92;108088;1257;70253;-66
2023/09/01 00:55:58;;;;;;;12.90;9.90;;;;;;;26.78;53.32;99807.80;108059;1254;71324;-66
2023/09/01 00:58:25;;;;;;;14.60;10.00;;;;;;;26.66;53.47;99808.98;108154;1254;60449;-67
2023/09/01 01:00:57;;;;;;;15.50;10.50;;;;;;;26.73;53.56;99803.27;108216;1254;59477;-68
2023/09/01 01:03:25;;;;;;;13.10;9.90;;;;;;;26.72;53.50;99799.21;108127;1254;73328;-67
2023/09/01 01:06:17;;;;;;;11.80;9.00;;;;;;;26.85;53.34;99799.98;108062;1254;70360;-66
2023/09/01 01:08:54;;;;;;;15.80;11.20;;;;;;;26.90;53.08;99803.94;108186;1254;72621;-66
2023/09/01 01:11:24;;;;;;;13.60;10.20;;;;;;;26.91;53.30;99811.60;108090;1259;62149;-67
2023/09/01 01:13:55;;;;;;;14.80;12.20;;;;;;;26.77;53.50;99815.45;108135;1253;59899;-67
2023/09/01 01:16:22;;;;;;;14.60;12.10;;;;;;;26.70;53.78;99813.70;107971;1254;73055;-66
2023/09/01 01:18:50;;;;;;;16.60;11.90;;;;;;;26.53;54.28;99812.29;107794;1254;68927;-67
2023/09/01 01:21:22;;;;;;;15.40;11.80;;;;;;;26.39;54.63;99816.88;108050;1253;71534;-66
2023/09/01 01:23:51;;;;;;;16.00;11.30;;;;;;;26.42;54.65;99822.44;108160;1254;61665;-67
2023/09/01 01:26:19;;;;;;;12.70;11.30;;;;;;;26.32;54.89;99819.30;108089;1254;59486;-67
2023/09/01 01:28:46;;;;;;;15.30;12.40;;;;;;;26.44;54.78;99816.36;108075;1258;73821;-65
2023/09/01 01:31:14;;;;;;;13.20;11.50;;;;;;;26.47;54.46;99815.98;108069;1254;70289;-68
2023/09/01 01:33:52;;;;;;;14.30;11.80;;;;;;;26.53;54.39;99815.36;107972;1256;72619;-67
2023/09/01 01:36:52;;;;;;;14.60;10.60;;;;;;;26.51;54.33;99810.91;108023;1257;60023;-66
2023/09/01 01:39:23;;;;;;;12.20;10.90;;;;;;;26.33;54.82;99806.71;107996;1254;60178;-67
2023/09/01 01:42:10;;;;;;;11.80;10.20;;;;;;;26.27;55.12;99802.02;108049;1254;73031;-66
2023/09/01 01:44:42;;;;;;;14.00;10.90;;;;;;;26.25;55.12;99793.04;108094;1254;69934;-65
2023/09/01 01:47:11;;;;;;;15.00;11.00;;;;;;;26.20;55.15;99791.76;107999;1255;72653;-67
2023/09/01 01:49:39;;;;;;;12.70;10.90;;;;;;;26.08;55.34;99792.17;107993;1254;62438;-67
2023/09/01 01:52:06;;;;;;;12.70;10.90;;;;;;;26.07;55.28;99789.66;108022;1255;59970;-68
2023/09/01 01:54:34;;;;;;;14.30;10.50;;;;;;;26.05;55.43;99786.13;108011;1253;73057;-66
2023/09/01 01:57:01;;;;;;;15.30;11.60;;;;;;;26.03;55.63;99790.19;107993;1260;70585;-66
2023/09/01 01:59:28;;;;;;;14.40;10.70;;;;;;;25.88;55.83;99794.10;107975;1253;73084;-66
2023/09/01 02:01:58;;;;;;;11.20;9.20;;;;;;;25.89;56.04;99797.98;108019;1254;61744;-67
2023/09/01 02:04:25;;;;;;;12.10;10.50;;;;;;;26.01;55.68;99797.72;107882;1254;59638;-67
2023/09/01 02:06:53;;;;;;;14.20;9.90;;;;;;;26.21;55.10;99796.30;108056;1254;72829;-67
2023/09/01 02:09:20;;;;;;;12.80;10.20;;;;;;;26.46;54.57;99798.30;107989;1257;69950;-66
2023/09/01 02:11:48;;;;;;;12.10;10.30;;;;;;;26.25;54.88;99803.45;108049;1253;72633;-67
2023/09/01 02:14:15;;;;;;;10.30;9.10;;;;;;;26.06;55.36;99811.98;108014;1254;61634;-68
2023/09/01 02:16:43;;;;;;;14.60;9.80;;;;;;;26.15;55.26;99817.11;107938;1256;60633;-67
2023/09/01 02:19:11;;;;;;;11.00;9.40;;;;;;;26.26;55.11;99820.23;107998;1259;73868;-66
2023/09/01 02:21:39;;;;;;;13.60;9.50;;;;;;;26.47;54.73;99828.11;108149;1255;70316;-67
2023/09/01 02:24:07;;;;;;;14.40;9.80;;;;;;;26.76;53.89;99829.81;108026;1254;72407;-67
2023/09/01 02:26:34;;;;;;;11.60;9.70;;;;;;;26.67;53.91;99834.23;108029;1254;61804;-65
2023/09/01 02:29:04;;;;;;;14.10;10.80;;;;;;;26.60;54.18;99834.27;108014;1254;60415;-65
2023/09/01 02:31:32;;;;;;;12.70;10.30;;;;;;;26.58;54.12;99829.89;108044;1254;73936;-66
2023/09/01 02:34:00;;;;;;;10.80;9.20;;;;;;;26.60;54.04;99828.52;107954;1254;70167;-67
2023/09/01 02:36:32;;;;;;;12.60;10.00;;;;;;;26.45;54.50;99827.73;108056;1257;71353;-67
2023/09/01 02:39:00;;;;;;;12.80;9.80;;;;;;;26.60;54.19;99830.64;107972;1254;61716;-67
2023/09/01 02:41:28;;;;;;;15.50;9.90;;;;;;;26.69;53.77;99836.20;108027;1254;60319;-66
2023/09/01 02:43:57;;;;;;;12.20;10.60;;;;;;;26.66;54.02;99837.02;108029;1254;72898;-67
2023/09/01 02:46:24;;;;;;;12.20;9.90;;;;;;;26.58;54.13;99834.82;107993;1254;69914;-66
2023/09/01 02:48:52;;;;;;;13.40;10.60;;;;;;;26.61;54.12;99837.55;108038;1254;72990;-67
2023/09/01 02:51:19;;;;;;;11.90;10.00;;;;;;;26.67;53.96;99837.31;108006;1253;61666;-67
2023/09/01 02:53:46;;;;;;;14.50;10.10;;;;;;;26.61;54.16;99833.41;108049;1253;60096;-66
2023/09/01 02:56:14;;;;;;;15.30;10.60;;;;;;;26.64;54.08;99833.14;108082;1254;73929;-66
2023/09/01 02:58:41;;;;;;;16.60;11.60;;;;;;;26.63;54.21;99828.46;108043;1255;70077;-66
2023/09/01 03:01:09;;;;;;;16.60;11.70;;;;;;;25.99;55.65;99827.40;108034;1254;71598;-67
2023/09/01 03:03:38;;;;;;;13.50;10.30;;;;;;;25.99;56.20;99830.80;108066;1254;61072;-66
2023/09/01 03:06:08;;;;;;;12.90;10.70;;;;;;;26.50;54.88;99832.17;108031;1254;60310;-66
2023/09/01 03:08:37;;;;;;;14.60;12.30;;;;;;;26.50;54.88;99834.96;108091;1253;73965;-67
2023/09/01 03:11:05;;;;;;;13.20;11.20;;;;;;;26.54;54.80;99840.38;108053;1253;69421;-67
2023/09/01 03:13:32;;;;;;;14.50;10.60;;;;;;;26.52;54.86;99845.33;107971;1254;72621;-67
2023/09/01 03:16:00;;;;;;;13.50;11.60;;;;;;;26.51;54.93;99851.88;108054;1254;61690;-68
2023/09/01 03:18:28;;;;;;;16.40;11.80;;;;;;;26.55;54.77;99854.34;107978;1254;60290;-67
2023/09/01 03:20:56;;;;;;;13.00;11.60;;;;;;;26.66;54.55;99853.61;107985;1254;74381;-67
2023/09/01 03:23:24;;;;;;;11.60;10.10;;;;;;;26.50;54.97;99857.45;108023;1253;70162;-67
2023/09/01 03:25:56;;;;;;;14.20;11.70;;;;;;;26.55;54.87;99861.55;108021;1254;72458;-67
2023/09/01 03:28:25;;;;;;;14.70;12.00;;;;;;;26.57;54.74;99858.65;108009;1253;61864;-68
2023/09/01 03:30:52;;;;;;;15.00;11.70;;;;;;;26.24;55.33;99859.25;108019;1253;60899;-68
2023/09/01 03:33:22;;;;;;;14.10;12.60;;;;;;;26.51;54.86;99856.02;107977;1255;73856;-66
2023/09/01 03:35:49;;;;;;;15.70;11.90;;;;;;;26.46;54.93;99855.20;108041;1254;70466;-66
2023/09/01 03:38:17;;;;;;;15.60;11.70;;;;;;;26.36;55.24;99858.55;108000;1254;72508;-66
2023/09/01 03:40:44;;;;;;;17.90;11.80;;;;;;;26.05;56.18;99858.42;108026;1258;61660;-66
2023/09/01 03:43:12;;;;;;;14.60;10.40;;;;;;;25.99;56.49;99858.34;108113;1254;60089;-67
2023/09/01 03:45:44;;;;;;;12.70;10.90;;;;;;;26.12;56.33;99860.68;108099;1254;73824;-67
2023/09/01 03:48:11;;;;;;;15.20;11.50;;;;;;;26.26;56.03;99868.95;108043;1259;68849;-67
2023/09/01 03:50:39;;;;;;;17.70;12.10;;;;;;;26.35;55.63;99865.88;108069;1254;72621;-67
2023/09/01 03:53:06;;;;;;;15.60;11.70;;;;;;;26.26;55.88;99867.82;107973;1253;61791;-67
2023/09/01 03:55:34;;;;;;;15.70;12.70;;;;;;;26.18;55.96;99870.45;108043;1253;60397;-66
2023/09/01 03:58:01;;;;;;;16.20;11.90;;;;;;;26.32;55.84;99869.69;108011;1254;76093;-66
2023/09/01 04:00:29;;;;;;;15.50;12.10;;;;;;;26.48;55.34;99868.58;108001;1254;69249;-66
2023/09/01 04:02:56;;;;;;;17.60;11.90;;;;;;;26.58;55.00;99877.66;108079;1254;71278;-67
2023/09/01 04:05:23;;;;;;;17.20;13.00;;;;;;;26.63;54.95;99882.17;108105;1257;60436;-67
2023/09/01 04:07:51;;;;;;;16.50;12.90;;;;;;;26.53;55.32;99882.84;108080;1254;60338;-67
2023/09/01 04:10:18;;;;;;;16.50;12.60;;;;;;;26.73;54.85;99882.20;108074;1254;72573;-67
2023/09/01 04:12:46;;;;;;;16.40;12.40;;;;;;;26.90;54.53;99888.97;108191;1254;70280;-66
2023/09/01 04:15:13;;;;;;;16.50;12.20;;;;;;;26.85;54.57;99884.45;108150;1254;72953;-67
2023/09/01 04:17:42;;;;;;;16.70;12.40;;;;;;;26.89;54.49;99884.20;108054;1256;60879;-67
2023/09/01 04:20:10;;;;;;;17.90;13.30;;;;;;;26.95;54.34;99883.91;108115;1254;60165;-68
2023/09/01 04:22:37;;;;;;;16.90;12.00;;;;;;;26.88;54.52;99881.44;108108;1253;74047;-66
2023/09/01 04:25:06;;;;;;;19.10;14.40;;;;;;;26.93;54.53;99879.75;108032;1254;69990;-68
2023/09/01 04:27:34;;;;;;;16.40;13.10;;;;;;;27.07;54.11;99884.00;108065;1253;74767;-68
2023/09/01 04:30:02;;;;;;;19.10;13.70;;;;;;;27.02;54.59;99885.27;108048;1253;61060;-67
2023/09/01 04:32:38;;;;;;;17.00;13.50;;;;;;;27.00;54.54;99882.70;107984;1253;59913;-68
2023/09/01 04:35:07;;;;;;;21.10;13.80;;;;;;;26.96;54.67;99878.70;108019;1253;73929;-67
2023/09/01 04:37:34;;;;;;;17.70;13.70;;;;;;;26.58;55.76;99879.04;108041;1253;70279;-67
2023/09/01 04:40:06;;;;;;;17.50;13.70;;;;;;;25.33;59.21;99879.85;108019;1258;72089;-67
2023/09/01 04:42:34;;;;;;;19.90;14.00;;;;;;;25.26;59.91;99881.98;107920;1258;61098;-66
2023/09/01 04:45:03;;;;;;;19.30;14.60;;;;;;;25.27;60.19;99888.73;107957;1254;60293;-67
2023/09/01 04:47:30;;;;;;;17.70;13.90;;;;;;;25.39;60.28;99896.16;107990;1254;72634;-67
2023/09/01 04:49:58;;;;;;;18.30;13.80;;;;;;;25.42;60.48;99899.61;107923;1260;69034;-67
2023/09/01 04:52:26;;;;;;;16.90;14.80;;;;;;;25.41;60.57;99902.91;108069;1254;71817;-67
2023/09/01 04:55:08;;;;;;;15.30;11.70;;;;;;;25.34;61.13;99908.27;108009;1259;60369;-67
2023/09/01 04:57:36;;;;;;;15.50;12.40;;;;;;;25.50;60.81;99906.85;108029;1254;58981;-67
2023/09/01 05:00:15;;;;;;;15.10;12.50;;;;;;;26.60;58.08;99912.86;107995;1254;73874;-67
2023/09/01 05:02:44;;;;;;;14.30;12.10;;;;;;;26.23;58.78;99915.52;108022;1254;71356;-66
2023/09/01 05:05:12;;;;;;;17.40;14.50;;;;;;;25.88;59.88;99922.91;107936;1254;71080;-67
2023/09/01 05:07:40;;;;;;;16.70;14.10;;;;;;;26.86;57.41;99929.20;107959;1254;61097;-68
2023/09/01 05:10:09;;;;;;;17.20;13.30;;;;;;;27.22;56.03;99929.27;108034;1254;60456;-67
2023/09/01 05:12:37;;;;;;;18.40;14.50;;;;;;;27.11;56.24;99926.85;107993;1254;73874;-68
2023/09/01 05:15:05;;;;;;;15.30;13.00;;;;;;;27.13;56.12;99929.68;107892;1254;70535;-67
2023/09/01 05:17:32;;;;;;;17.00;12.30;;;;;;;27.11;56.18;99935.48;108005;1254;72141;-67
2023/09/01 05:20:00;;;;;;;15.20;12.80;;;;;;;27.18;56.07;99936.68;108016;1254;61363;-68
2023/09/01 05:22:28;;;;;;;13.80;11.10;;;;;;;27.32;55.10;99938.02;108016;1254;60315;-67
2023/09/01 05:24:55;;;;;;;18.10;12.40;;;;;;;27.51;54.52;99943.71;108026;1254;74015;-67
2023/09/01 05:27:23;;;;;;;16.10;12.30;;;;;;;27.60;54.39;99941.08;108059;1254;70491;-67
2023/09/01 05:29:50;;;;;;;13.50;11.60;;;;;;;27.73;53.86;99937.25;108007;1254;73313;-67
2023/09/01 05:32:19;;;;;;;13.50;10.70;;;;;;;27.67;53.69;99934.98;107968;1256;61709;-67
2023/09/01 05:34:47;;;;;;;14.00;10.10;;;;;;;27.56;54.01;99935.77;108076;1254;59696;-67
2023/09/01 05:37:14;;;;;;;11.90;10.20;;;;;;;27.77;53.45;99932.02;108090;1253;73819;-67
2023/09/01 05:39:42;;;;;;;15.40;10.10;;;;;;;27.55;53.77;99929.87;108063;1254;68891;-67
2023/09/01 05:42:10;;;;;;;10.40;9.20;;;;;;;27.83;53.06;99931.11;108070;1253;71491;-69
2023/09/01 05:44:37;;;;;;;11.60;8.90;;;;;;;27.70;53.00;99927.72;108015;1254;60444;-67
2023/09/01 05:47:05;;;;;;;12.50;9.20;;;;;;;27.94;52.74;99928.94;108034;1255;60460;-67
2023/09/01 05:49:33;;;;;;;10.20;8.20;;;;;;;28.04;51.87;99929.23;108094;1254;73176;-67
2023/09/01 05:52:01;;;;;;;10.70;8.60;;;;;;;27.39;53.29;99929.15;108050;1254;70013;-68
2023/09/01 05:54:28;;;;;;;14.20;8.80;;;;;;;27.25;53.68;99928.55;108017;1254;72062;-67
2023/09/01 05:56:56;;;;;;;16.70;9.00;;;;;;;27.36;53.57;99928.63;107999;1256;61665;-67
2023/09/01 05:59:23;;;;;;;10.30;8.50;;;;;;;27.61;53.17;99926.21;108018;1254;60293;-67
2023/09/01 06:01:51;;;;;;;12.20;8.10;;;;;;;28.40;51.38;99921.36;108032;1254;74003;-67
2023/09/01 06:04:18;;;;;;;11.00;8.20;;;;;;;28.67;50.73;99921.33;108068;1254;69975;-67
2023/09/01 06:06:46;;;;;;;12.80;8.10;;;;;;;29.01;49.99;99926.35;108083;1254;71374;-67
2023/09/01 06:09:13;;;;;;;8.30;7.50;;;;;;;29.23;49.41;99925.20;108060;1253;61711;-68
2023/09/01 06:11:40;;;;;;;9.80;7.50;;;;;;;29.49;48.58;99928.00;108031;1253;60341;-68
2023/09/01 06:14:08;;;;;;;9.80;7.90;;;;;;;29.93;47.79;99927.54;108061;1254;73790;-67
2023/09/01 06:16:35;;;;;;;8.20;6.90;;;;;;;30.05;47.21;99924.63;108054;1254;70185;-68
2023/09/01 06:19:03;;;;;;;11.70;7.40;;;;;;;30.33;46.59;99924.22;108004;1254;72463;-67
2023/09/01 06:21:33;;;;;;;8.60;7.70;;;;;;;30.74;45.49;99925.31;108011;1254;60827;-68
2023/09/01 06:24:01;;;;;;;11.70;7.00;;;;;;;31.03;44.89;99919.70;108025;1253;60594;-68
2023/09/01 06:26:28;;;;;;;11.80;7.40;;;;;;;31.16;43.93;99924.02;108024;1254;72598;-67
2023/09/01 06:28:55;;;;;;;7.90;7.00;;;;;;;31.25;43.44;99927.63;108012;1253;70285;-68
2023/09/01 06:31:23;;;;;;;11.10;8.00;;;;;;;31.12;43.48;99926.31;108066;1254;72475;-68
2023/09/01 06:33:50;;;;;;;8.60;7.60;;;;;;;31.02;43.51;99925.95;108005;1254;61685;-66
2023/09/01 06:36:19;;;;;;;10.80;7.90;;;;;;;30.88;43.77;99931.05;108059;1254;59638;-68
2023/09/01 06:38:48;;;;;;;9.70;7.50;;;;;;;30.88;43.93;99934.32;108037;1253;73950;-68
2023/09/01 06:41:15;;;;;;;10.30;8.10;;;;;;;30.81;43.96;99939.11;108059;1254;68730;-67
2023/09/01 06:43:42;;;;;;;11.70;7.60;;;;;;;30.24;44.64;99940.14;107999;1254;72494;-68
2023/09/01 06:46:10;;;;;;;11.30;7.30;;;;;;;29.79;46.06;99935.23;108021;1253;61804;-67
2023/09/01 06:48:38;;;;;;;12.00;7.70;;;;;;;30.53;44.57;99934.88;108091;1253;60309;-68
2023/09/01 06:51:05;;;;;;;10.80;7.00;;;;;;;30.57;44.44;99934.88;108018;1254;73763;-68
2023/09/01 06:53:33;;;;;;;8.60;6.90;;;;;;;30.48;44.53;99934.69;108070;1253;68701;-68
2023/09/01 06:56:00;;;;;;;9.10;7.50;;;;;;;30.38;44.69;99941.64;108076;1254;72726;-67
2023/09/01 06:58:28;;;;;;;9.40;7.10;;;;;;;30.39;44.42;99940.05;108005;1254;61697;-67
2023/09/01 07:00:57;;;;;;;11.70;7.60;;;;;;;30.38;44.33;99942.52;107891;1259;60371;-69
2023/09/01 07:03:25;;;;;;;8.90;7.30;;;;;;;30.29;44.70;99944.31;108004;1254;73788;-67
2023/09/01 07:05:54;;;;;;;8.20;6.40;;;;;;;30.42;44.73;99938.24;108014;1254;69969;-68
2023/09/01 07:08:22;;;;;;;13.50;7.00;;;;;;;30.71;44.11;99938.34;107982;1257;73176;-68
2023/09/01 07:10:49;;;;;;;7.10;6.20;;;;;;;31.06;43.86;99934.43;107974;1253;60792;-68
2023/09/01 07:13:16;;;;;;;9.00;6.70;;;;;;;31.36;42.70;99935.44;107994;1254;60041;-69
2023/09/01 07:15:50;;;;;;;10.00;6.50;;;;;;;31.86;42.17;99933.89;107848;1253;73914;-68
2023/09/01 07:18:21;;;;;;;8.40;6.50;;;;;;;32.37;41.70;99931.27;108004;1254;69217;-68
2023/09/01 07:20:50;;;;;;;9.40;6.70;;;;;;;32.88;40.63;99926.94;107993;1254;63891;-67
2023/09/01 07:23:18;;;;;;;15.40;6.30;;;;;;;33.14;39.71;99923.05;107882;1254;61863;-68
2023/09/01 07:25:45;;;;;;;11.70;5.70;;;;;;;33.46;38.62;99920.45;108113;1253;60968;-68
2023/09/01 07:28:12;;;;;;;7.30;6.30;;;;;;;33.86;38.44;99919.34;108104;1253;64850;-68
2023/09/01 07:30:40;;;;;;;6.00;5.20;;;;;;;34.21;37.93;99922.02;108138;1253;61562;-68
2023/09/01 07:33:08;;;;;;;9.20;5.50;;;;;;;34.81;37.07;99916.17;108142;1253;63721;-69
2023/09/01 07:35:35;;;;;;;6.10;4.40;;;;;;;35.31;35.49;99912.00;108090;1255;60344;-68
2023/09/01 07:38:03;;;;;;;5.90;4.60;;;;;;;35.59;34.96;99912.05;108164;1253;60338;-69
2023/09/01 07:40:33;;;;;;;7.70;5.10;;;;;;;35.97;34.49;99906.80;108117;1253;63687;-68
2023/09/01 07:43:01;;;;;;;6.00;4.80;;;;;;;35.25;35.56;99913.73;108127;1254;60313;-70
2023/09/01 07:45:28;;;;;;;7.40;5.10;;;;;;;35.33;35.26;99918.48;108115;1254;62865;-68
2023/09/01 07:47:56;;;;;;;7.90;6.00;;;;;;;35.31;35.35;99920.52;108102;1254;60440;-69
2023/09/01 07:50:46;;;;;;;6.40;5.10;;;;;;;35.36;34.93;99924.77;108110;1254;60297;-68
2023/09/01 07:53:13;;;;;;;7.50;6.00;;;;;;;34.94;35.19;99933.40;108165;1253;65405;-69
2023/09/01 07:55:41;;;;;;;6.00;5.40;;;;;;;34.63;35.55;99934.08;108081;1253;60109;-68
2023/09/01 07:58:08;;;;;;;6.10;5.30;;;;;;;34.52;36.11;99933.33;108096;1253;62727;-68
2023/09/01 08:00:37;;;;;;;6.40;5.20;;;;;;;34.62;35.80;99930.64;108093;1253;61008;-68
2023/09/01 08:03:10;;;;;;;6.10;5.50;;;;;;;34.73;35.61;99928.86;108077;1254;60521;-69
2023/09/01 08:05:39;;;;;;;5.50;5.00;;;;;;;34.94;35.32;99923.52;108134;1253;63796;-69
2023/09/01 08:08:06;;;;;;;6.10;4.80;;;;;;;35.04;35.33;99923.81;108051;1253;60824;-68
2023/09/01 08:10:34;;;;;;;6.00;4.90;;;;;;;35.50;34.36;99922.14;108056;1257;63794;-68
2023/09/01 08:13:01;;;;;;;5.30;4.70;;;;;;;35.73;33.66;99923.80;108026;1254;60389;-69
2023/09/01 08:15:29;;;;;;;8.50;5.20;;;;;;;35.79;33.38;99925.81;108126;1254;60414;-69
2023/09/01 08:17:56;;;;;;;6.10;5.40;;;;;;;35.60;33.32;99921.44;108045;1253;63768;-68
2023/09/01 08:20:25;;;;;;;6.90;5.50;;;;;;;35.91;32.98;99925.23;108080;1253;62006;-68
2023/09/01 08:22:53;;;;;;;7.10;5.30;;;;;;;35.83;32.80;99929.39;108067;1254;63855;-69
2023/09/01 08:25:20;;;;;;;7.50;5.90;;;;;;;35.10;34.05;99928.81;108043;1257;60792;-68
2023/09/01 08:27:48;;;;;;;9.80;6.20;;;;;;;35.09;33.68;99928.29;108086;1252;59112;-69
2023/09/01 08:30:15;;;;;;;6.80;5.50;;;;;;;35.56;33.06;99929.42;108084;1254;63696;-68
2023/09/01 08:32:43;;;;;;;6.70;5.60;;;;;;;35.07;33.61;99926.02;108049;1253;61348;-67
2023/09/01 08:35:11;;;;;;;5.60;4.70;;;;;;;35.51;32.17;99930.14;107959;1253;71476;-69
2023/09/01 08:37:39;;;;;;;7.40;5.40;;;;;;;35.56;31.98;99934.90;108009;1253;60344;-69
2023/09/01 08:40:09;;;;;;;5.70;5.10;;;;;;;35.99;31.75;99928.43;108082;1255;60951;-68
2023/09/01 08:42:42;;;;;;;6.60;4.90;;;;;;;36.19;31.46;99929.72;108022;1253;63688;-68
2023/09/01 08:45:10;;;;;;;7.50;5.70;;;;;;;36.36;31.28;99930.81;108094;1253;60211;-69
2023/09/01 08:47:42;;;;;;;6.70;5.40;;;;;;;36.67;30.95;99933.23;108125;1254;65212;-69
2023/09/01 08:50:09;;;;;;;8.70;5.20;;;;;;;36.93;30.82;99929.19;108077;1256;60273;-70
2023/09/01 08:52:38;;;;;;;9.20;5.70;;;;;;;36.91;30.69;99932.08;108078;1254;61080;-68
2023/09/01 08:55:06;;;;;;;8.60;5.80;;;;;;;36.46;31.00;99934.23;108059;1253;64954;-68
2023/09/01 08:57:33;;;;;;;7.60;5.60;;;;;;;36.66;30.77;99936.44;108072;1254;60664;-69
2023/09/01 09:00:01;;;;;;;6.60;5.60;;;;;;;36.03;30.99;99934.00;107992;1254;62966;-68
2023/09/01 09:02:29;;;;;;;5.80;5.20;;;;;;;35.26;32.05;99937.56;107979;1254;60392;-69
2023/09/01 09:04:56;;;;;;;7.60;5.20;;;;;;;35.16;32.40;99940.46;108036;1258;60482;-69
2023/09/01 09:07:23;;;;;;;7.80;5.20;;;;;;;35.69;31.81;99939.79;107887;1254;64908;-68
2023/09/01 09:09:52;;;;;;;6.50;5.20;;;;;;;36.10;30.75;99941.73;108058;1254;61447;-70
2023/09/01 09:12:21;;;;;;;6.70;5.30;;;;;;;36.35;30.29;99939.77;108023;1254;62455;-69
2023/09/01 09:14:52;;;;;;;7.70;5.00;;;;;;;36.33;30.26;99935.98;108089;1253;60411;-68
2023/09/01 09:17:46;;;;;;;4.70;4.00;;;;;;;36.96;29.75;99928.84;108021;1253;59096;-70
2023/09/01 09:20:15;;;;;;;5.70;4.60;;;;;;;37.63;28.68;99928.91;108050;1258;65022;-69
2023/09/01 09:22:53;;;;;;;6.30;4.40;;;;;;;38.28;27.23;99936.58;108066;1254;70201;-69
2023/09/01 09:25:30;;;;;;;8.10;4.60;;;;;;;38.60;26.75;99937.33;107948;1254;63884;-69
2023/09/01 09:27:58;;;;;;;7.20;4.70;;;;;;;38.92;26.28;99934.14;108099;1253;60507;-69
2023/09/01 09:30:25;;;;;;;5.30;4.80;;;;;;;38.87;26.16;99930.26;108043;1254;60477;-70
2023/09/01 09:33:06;;;;;;;5.40;4.90;;;;;;;38.95;26.30;99936.99;108086;1254;64937;-68
2023/09/01 09:35:34;;;;;;;8.10;5.30;;;;;;;38.76;26.26;99943.68;108031;1254;61618;-68
2023/09/01 09:38:02;;;;;;;5.50;4.50;;;;;;;38.74;26.07;99945.25;108069;1254;62506;-68
2023/09/01 09:40:30;;;;;;;7.10;5.20;;;;;;;38.73;25.71;99948.74;108069;1254;60331;-69
2023/09/01 09:42:59;;;;;;;5.30;4.50;;;;;;;38.52;25.96;99949.33;107902;1254;60348;-68
2023/09/01 09:45:28;;;;;;;6.80;5.50;;;;;;;38.53;26.05;99952.02;108047;1254;63692;-67
2023/09/01 09:47:57;;;;;;;7.00;5.60;;;;;;;38.56;26.07;99954.60;108022;1254;61288;-68
2023/09/01 09:50:27;;;;;;;6.60;4.80;;;;;;;38.50;26.30;99957.29;107965;1254;63832;-68
2023/09/01 09:52:59;;;;;;;6.70;5.60;;;;;;;38.59;26.11;99955.91;107986;1254;60323;-69
2023/09/01 09:55:29;;;;;;;6.20;5.40;;;;;;;38.88;25.67;99962.19;108001;1254;58735;-69
2023/09/01 09:58:04;;;;;;;6.70;5.10;;;;;;;38.89;25.56;99961.88;107839;1260;72574;-69
2023/09/01 10:00:34;;;;;;;5.70;4.90;;;;;;;39.11;24.98;99962.66;108023;1254;61280;-69
2023/09/01 10:03:07;;;;;;;5.20;4.20;;;;;;;39.45;24.53;99963.73;107898;1254;63771;-69
2023/09/01 10:05:35;;;;;;;5.30;4.30;;;;;;;39.61;24.05;99962.19;107948;1255;60428;-67
2023/09/01 10:08:05;;;;;;;5.90;4.50;;;;;;;39.94;24.16;99958.87;107883;1254;59498;-69
2023/09/01 10:10:34;;;;;;;6.00;4.70;;;;;;;40.20;23.42;99956.20;108020;1253;63771;-69
2023/09/01 10:13:03;;;;;;;6.90;4.70;;;;;;;40.19;23.46;99956.46;108100;1254;60486;-69
2023/09/01 10:15:31;;;;;;;5.80;4.70;;;;;;;40.28;23.62;99960.44;107790;1254;244185;-70
2023/09/01 10:19:42;;;;;;;9.00;4.70;;;;;;;38.86;25.17;99960.86;105025;1288;600470;-68
2023/09/01 10:22:10;;;;;;;5.90;5.00;;;;;;;39.45;24.27;99961.55;107361;1264;59154;-68
2023/09/01 10:24:37;;;;;;;6.40;5.80;;;;;;;39.47;24.23;99963.95;107341;1264;58726;-70
2023/09/01 10:27:06;;;;;;;5.90;4.90;;;;;;;39.24;24.41;99964.11;107396;1263;62714;-68
2023/09/01 10:29:38;;;;;;;5.80;4.70;;;;;;;39.03;24.67;99975.98;107473;1263;60210;-68
2023/09/01 10:32:18;;;;;;;6.90;4.60;;;;;;;38.94;24.49;99978.00;107382;1264;62527;-68
2023/09/01 10:34:55;;;;;;;4.90;4.20;;;;;;;39.00;24.20;99978.22;107298;1260;59176;-69
2023/09/01 10:37:27;;;;;;;6.30;4.80;;;;;;;39.11;24.09;99975.83;107456;1261;58779;-68
2023/09/01 10:39:55;;;;;;;10.10;4.80;;;;;;;39.26;24.29;99968.52;107557;1267;62657;-67
2023/09/01 10:42:38;;;;;;;4.90;3.80;;;;;;;39.30;24.25;99972.80;107482;1260;60254;-67
2023/09/01 10:45:06;;;;;;;7.10;4.60;;;;;;;39.34;23.81;99975.53;107423;1261;64320;-69
2023/09/01 10:47:34;;;;;;;5.50;5.00;;;;;;;39.32;23.80;99972.51;107475;1267;59507;-69
2023/09/01 10:50:06;;;;;;;7.10;4.90;;;;;;;39.31;24.02;99974.67;107467;1261;59519;-68
2023/09/01 10:52:36;;;;;;;5.50;4.90;;;;;;;39.13;24.17;99976.20;107654;1257;64229;-69
2023/09/01 10:55:05;;;;;;;7.70;5.20;;;;;;;38.88;24.24;99976.44;108144;1254;61333;-69
2023/09/01 10:57:41;;;;;;;6.00;5.10;;;;;;;38.65;24.86;99975.73;107952;1256;63134;-69
2023/09/01 11:00:28;;;;;;;6.40;5.50;;;;;;;38.42;25.39;99977.13;108010;1256;59144;-68
2023/09/01 11:03:30;;;;;;;7.10;5.10;;;;;;;38.22;25.02;99973.63;107967;1254;59508;-69
2023/09/01 11:06:03;;;;;;;7.40;5.80;;;;;;;38.09;25.13;99973.85;107950;1254;64136;-69
2023/09/01 11:08:31;;;;;;;7.60;5.90;;;;;;;38.14;25.65;99975.11;107982;1254;61426;-68
2023/09/01 11:11:09;;;;;;;6.90;6.20;;;;;;;38.17;25.90;99979.35;107825;1262;75472;-68
2023/09/01 11:13:38;;;;;;;7.10;6.40;;;;;;;38.14;26.10;99973.84;107993;1258;59726;-69
2023/09/01 11:16:08;;;;;;;8.10;6.90;;;;;;;37.86;26.22;99969.90;107860;1254;59404;-69
2023/09/01 11:18:36;;;;;;;9.50;6.20;;;;;;;37.74;26.56;99970.22;107927;1254;64488;-69
2023/09/01 11:21:07;;;;;;;9.40;6.00;;;;;;;37.66;26.53;99969.92;107857;1254;60124;-68
2023/09/01 11:23:34;;;;;;;8.00;6.20;;;;;;;37.73;26.24;99966.68;107966;1256;63835;-69
2023/09/01 11:26:03;;;;;;;8.10;6.20;;;;;;;38.00;25.92;99966.42;107887;1255;59634;-69
2023/09/01 11:28:31;;;;;;;8.10;5.80;;;;;;;38.37;25.40;99962.33;107718;1257;59423;-68